Time;durP1;ratioP1;P1;durP2;ratioP2;P2;SDS_P1;SDS_P2;PMS_P1;PMS_P2;Temp;Humidity;BMP_temperature;BMP_pressure;BME280_temperature;BME280_humidity;BME280_pressure;Samples;Min_cycle;Max_cycle;Signal;HPM_P1;HPM_P2
2022/08/25 06:56:39;;;;;;;16.80;5.45;;;;;;;21.16;64.47;96616.19;2097584;27;20576;-60
2022/08/25 07:12:18;;;;;;;8.65;4.35;;;;;;;22.35;62.25;96601.00;2091685;28;20571;-60
2022/08/25 07:13:19;;;;;;;8.38;5.40;;;;;;;22.26;62.32;96599.22;2090185;28;20236;-60
2022/08/25 07:14:21;;;;;;;13.95;5.05;;;;;;;22.54;60.82;96551.44;2088208;28;20197;-61
2022/08/25 07:26:13;;;;;;;9.43;4.90;;;;;;;23.58;58.30;96594.75;2065020;27;1249716;-58
2022/08/25 07:27:38;;;;;;;59.60;10.30;;;;;;;23.29;58.79;96588.63;2078273;28;20232;-61
2022/08/25 07:37:27;;;;;;;9.80;4.60;;;;;;;24.24;55.76;96579.34;2103550;27;20902;-66
2022/08/25 07:38:48;;;;;;;7.63;4.25;;;;;;;25.02;53.88;96591.84;2098032;28;20202;-67
2022/08/25 07:52:15;;;;;;;11.57;4.50;;;;;;;26.49;50.00;96583.38;2068199;27;20932;-64
2022/08/25 07:53:21;;;;;;;10.35;4.82;;;;;;;25.75;51.05;96584.22;2062793;28;20210;-66
2022/08/25 07:54:26;;;;;;;10.73;4.50;;;;;;;25.02;53.13;96594.50;2062659;28;20259;-66
2022/08/25 07:55:35;;;;;;;16.33;5.20;;;;;;;25.46;52.12;96593.53;2062707;28;20297;-66
2022/08/25 08:04:36;;;;;;;19.15;5.07;;;;;;;26.75;49.14;96596.56;2084203;28;20565;-65
2022/08/25 08:05:41;;;;;;;15.70;4.40;;;;;;;26.38;50.51;96589.91;2082972;28;20210;-66
2022/08/25 08:06:43;;;;;;;9.23;4.72;;;;;;;25.37;52.36;96589.13;2077331;28;20197;-66
2022/08/25 08:07:45;;;;;;;8.65;5.43;;;;;;;24.74;53.31;96593.88;2072599;28;20773;-66
2022/08/25 08:08:49;;;;;;;8.95;4.43;;;;;;;24.43;54.50;96587.16;2072187;28;20553;-66
2022/08/25 08:17:49;;;;;;;12.10;4.90;;;;;;;24.51;54.60;96590.88;2110144;27;20550;-66
2022/08/25 08:18:52;;;;;;;19.52;5.80;;;;;;;24.29;54.50;96598.41;2108593;28;20680;-66
2022/08/25 08:19:54;;;;;;;11.93;5.88;;;;;;;24.56;54.53;96584.06;2109497;28;20202;-66
2022/08/25 08:20:56;;;;;;;10.15;4.93;;;;;;;24.84;53.67;96585.75;2109754;28;20220;-66
2022/08/25 08:33:22;;;;;;;9.83;5.43;;;;;;;25.20;52.66;96598.91;2091649;27;1220415;-64
2022/08/25 08:34:25;;;;;;;14.18;5.78;;;;;;;25.04;53.22;96600.53;2120728;28;20202;-65
2022/08/25 08:35:27;;;;;;;9.65;5.50;;;;;;;25.65;51.82;96597.75;2120922;27;20689;-64
2022/08/25 08:36:30;;;;;;;14.02;5.00;;;;;;;25.27;52.69;96595.44;2117891;27;20638;-64
2022/08/25 08:37:32;;;;;;;13.10;5.82;;;;;;;25.20;52.51;96596.25;2094737;28;20719;-65
2022/08/25 08:46:13;;;;;;;16.57;5.60;;;;;;;27.16;47.91;96592.91;2055148;27;1545341;-58
2022/08/25 08:47:31;;;;;;;11.00;4.40;;;;;;;26.37;49.12;96585.56;2099894;28;20451;-59
2022/08/25 08:48:59;;;;;;;11.68;4.43;;;;;;;25.99;50.80;96588.75;2099342;28;20198;-58
2022/08/25 08:50:13;;;;;;;10.82;5.50;;;;;;;26.12;50.26;96598.13;2090501;28;20716;-63
2022/08/25 08:51:24;;;;;;;7.70;5.15;;;;;;;26.68;49.32;96577.63;2092909;28;20207;-64
2022/08/25 09:00:43;;;;;;;7.88;4.93;;;;;;;26.21;49.13;96592.59;2085112;28;20583;-63
2022/08/25 10:38:04;;;;;;;4.60;3.77;;;;;;;29.16;41.75;96524.78;2075522;28;20363;-63
2022/08/25 10:39:15;;;;;;;5.83;3.87;;;;;;;31.27;38.84;96531.44;2070713;28;20420;-63
2022/08/25 10:41:08;;;;;;;11.70;5.33;;;;;;;32.73;37.13;96526.34;2070490;28;20467;-60
2022/08/25 10:42:32;;;;;;;4.77;3.80;;;;;;;31.38;37.85;96522.75;2048072;28;20505;-62
2022/08/25 10:50:17;;;;;;;4.90;3.37;;;;;;;34.45;33.28;96492.25;2054710;28;20444;-60
2022/08/25 10:51:36;;;;;;;5.57;3.90;;;;;;;32.30;35.06;96503.34;2053847;28;20510;-60
2022/08/25 10:53:09;;;;;;;6.10;4.03;;;;;;;31.65;36.95;96482.38;2053294;28;20457;-60
2022/08/25 10:54:45;;;;;;;7.50;3.63;;;;;;;32.38;35.50;96499.63;2054492;28;20430;-60
2022/08/25 11:01:05;;;;;;;4.67;3.40;;;;;;;32.54;36.16;96492.94;2054373;28;20421;-60
2022/08/25 11:02:28;;;;;;;5.40;3.87;;;;;;;31.64;36.37;96487.97;2052594;28;20501;-60
2022/08/25 11:03:51;;;;;;;5.93;3.80;;;;;;;32.65;35.10;96484.19;2052886;28;20434;-60
2022/08/25 11:05:01;;;;;;;5.67;3.17;;;;;;;33.84;33.46;96489.25;2053121;28;20947;-60
2022/08/25 11:06:10;;;;;;;4.60;3.30;;;;;;;31.46;35.72;96489.38;2053602;28;20438;-60
2022/08/25 11:19:38;;;;;;;9.40;3.20;;;;;;;33.45;33.27;96484.91;2067550;28;1257062;-61
2022/08/25 11:21:13;;;;;;;5.73;3.50;;;;;;;32.31;34.76;96482.59;2115913;28;20423;-62
2022/08/25 11:22:24;;;;;;;5.80;3.27;;;;;;;32.45;35.01;96475.31;2091983;28;20458;-59
2022/08/25 11:23:45;;;;;;;5.23;3.40;;;;;;;32.89;34.42;96471.03;2115704;28;20432;-60
2022/08/25 11:25:24;;;;;;;6.20;3.00;;;;;;;34.24;32.99;96477.22;2117087;28;20463;-60
2022/08/25 11:26:33;;;;;;;4.40;3.20;;;;;;;34.08;32.96;96473.22;2116073;28;20977;-62
2022/08/25 11:27:50;;;;;;;5.00;2.97;;;;;;;34.61;32.48;96471.84;2116599;28;20464;-62
2022/08/25 11:29:04;;;;;;;6.27;3.67;;;;;;;33.90;33.04;96482.09;2117832;28;20422;-62
2022/08/25 11:30:14;;;;;;;4.60;3.70;;;;;;;33.39;33.33;96478.47;2117156;28;20874;-62
2022/08/25 11:31:17;;;;;;;4.43;3.23;;;;;;;33.19;33.53;96471.28;2119615;28;20426;-62
2022/08/25 11:32:23;;;;;;;5.40;2.80;;;;;;;33.62;33.04;96460.84;2115524;28;20488;-62
2022/08/25 11:33:28;;;;;;;3.80;3.00;;;;;;;34.29;32.15;96446.75;2113042;28;20455;-62
2022/08/25 11:34:32;;;;;;;9.07;3.57;;;;;;;34.58;32.11;96471.50;2113487;28;20431;-62
2022/08/25 11:35:53;;;;;;;4.43;3.37;;;;;;;33.17;32.91;96470.66;2115949;28;21144;-62
2022/08/25 11:36:59;;;;;;;5.27;2.80;;;;;;;34.05;32.29;96465.53;2119077;28;20907;-62
2022/08/25 11:43:06;;;;;;;7.90;3.07;;;;;;;32.80;33.68;96473.13;2116163;28;20455;-62
2022/08/25 11:44:37;;;;;;;10.20;2.77;;;;;;;32.08;33.11;96463.06;2116320;28;20435;-62
2022/08/25 11:46:12;;;;;;;2.83;2.00;;;;;;;32.55;32.76;96465.69;2115037;28;20434;-62
2022/08/25 11:47:47;;;;;;;4.00;2.70;;;;;;;33.37;32.69;96473.28;2117374;28;20494;-62
2022/08/25 11:49:11;;;;;;;8.83;3.43;;;;;;;30.97;36.20;96458.09;2113526;28;20436;-62
2022/08/25 11:50:26;;;;;;;4.37;3.13;;;;;;;32.63;34.26;96459.22;2115816;28;20434;-61
2022/08/25 11:51:39;;;;;;;4.67;3.10;;;;;;;34.08;32.21;96450.72;2115244;28;20492;-60
2022/08/25 11:52:47;;;;;;;4.63;3.33;;;;;;;35.15;30.85;96468.53;2113791;28;20482;-60
2022/08/25 11:54:11;;;;;;;4.97;3.20;;;;;;;35.90;30.25;96463.72;2115279;28;20479;-60
2022/08/25 12:07:05;;;;;;;3.93;2.87;;;;;;;32.78;33.64;96458.19;2113031;28;20429;-64
2022/08/25 12:09:32;;;;;;;3.20;2.70;;;;;;;35.47;30.13;96452.03;2109367;28;20529;-64
2022/08/25 12:11:02;;;;;;;3.17;2.27;;;;;;;35.64;29.95;96455.75;2116035;28;20411;-64
2022/08/25 12:12:26;;;;;;;3.10;2.80;;;;;;;35.11;30.13;96451.03;2115166;28;20457;-64
2022/08/25 12:13:48;;;;;;;5.40;2.80;;;;;;;36.03;29.60;96459.94;2116482;28;21034;-65
2022/08/25 12:14:51;;;;;;;3.47;2.40;;;;;;;35.44;29.95;96444.34;2114331;28;20922;-64
2022/08/25 12:15:58;;;;;;;4.73;3.03;;;;;;;35.34;30.02;96461.16;2113870;28;20423;-64
2022/08/25 12:17:23;;;;;;;3.20;2.40;;;;;;;35.44;29.89;96452.47;2112632;28;20459;-65
2022/08/25 12:18:30;;;;;;;4.07;2.63;;;;;;;36.42;28.76;96441.28;2113105;28;20452;-64
2022/08/25 12:19:35;;;;;;;3.23;2.67;;;;;;;35.47;29.21;96454.75;2115642;28;20467;-64
2022/08/25 12:20:53;;;;;;;4.40;2.90;;;;;;;35.02;30.07;96452.44;2114577;28;20527;-64
2022/08/25 12:22:17;;;;;;;4.03;2.70;;;;;;;35.03;30.23;96452.19;2107952;28;20447;-65
2022/08/25 12:23:41;;;;;;;3.90;2.70;;;;;;;36.31;28.81;96453.78;2109838;28;20993;-64
2022/08/25 12:24:58;;;;;;;4.00;2.97;;;;;;;33.71;31.70;96443.28;2111461;28;20455;-64
2022/08/25 12:31:07;;;;;;;5.80;2.60;;;;;;;34.36;31.43;96441.28;2112144;28;20478;-64
2022/08/25 12:32:22;;;;;;;2.97;2.40;;;;;;;33.74;31.79;96440.16;2105976;28;20459;-64
2022/08/25 12:33:45;;;;;;;3.60;2.40;;;;;;;32.56;33.45;96440.34;2096395;28;20427;-64
2022/08/25 12:35:09;;;;;;;5.70;2.40;;;;;;;33.47;32.17;96437.66;2101864;28;20467;-64
2022/08/25 12:36:26;;;;;;;6.60;2.53;;;;;;;33.78;31.84;96435.94;2103976;28;20429;-67
2022/08/25 12:37:28;;;;;;;8.50;2.50;;;;;;;34.39;30.88;96438.97;2101240;28;21030;-64
2022/08/25 12:38:30;;;;;;;4.10;2.53;;;;;;;32.50;32.52;96435.78;2113405;28;20428;-64
2022/08/25 12:39:41;;;;;;;4.30;2.53;;;;;;;31.14;34.96;96420.88;2109191;28;20424;-66
2022/08/25 12:40:43;;;;;;;13.43;2.80;;;;;;;32.13;33.94;96430.03;2108010;28;20443;-63
2022/08/25 12:41:58;;;;;;;3.50;2.33;;;;;;;32.19;32.86;96426.53;2099421;28;20468;-64
2022/08/25 12:43:10;;;;;;;5.33;2.50;;;;;;;32.81;32.30;96395.56;2103141;28;20435;-64
2022/08/25 12:44:34;;;;;;;4.67;2.33;;;;;;;34.17;30.28;96428.53;2111015;28;20474;-64
2022/08/25 12:45:44;;;;;;;4.40;1.93;;;;;;;35.40;29.06;96429.59;2101669;28;20476;-64
2022/08/25 12:46:45;;;;;;;4.20;2.43;;;;;;;32.10;32.36;96426.94;2093188;28;20457;-65
2022/08/25 12:47:51;;;;;;;3.70;2.10;;;;;;;33.56;31.69;96416.56;2100039;28;20450;-65
2022/08/25 12:48:56;;;;;;;3.30;2.60;;;;;;;34.09;31.02;96431.53;2097219;28;20420;-65
2022/08/25 12:50:28;;;;;;;2.50;1.80;;;;;;;34.33;30.67;96429.00;2088656;28;20426;-64
2022/08/25 12:51:33;;;;;;;3.63;2.40;;;;;;;35.02;29.95;96418.00;2102667;28;20950;-64
2022/08/25 12:52:37;;;;;;;4.47;2.70;;;;;;;35.39;29.89;96417.06;2108360;28;20415;-66
2022/08/25 12:53:53;;;;;;;9.53;3.33;;;;;;;34.78;30.60;96423.28;2110334;28;20475;-64
2022/08/25 12:55:01;;;;;;;6.17;2.67;;;;;;;34.57;30.87;96421.06;2109501;28;20795;-65
2022/08/25 12:56:09;;;;;;;5.40;2.60;;;;;;;34.35;30.90;96424.22;2111140;28;20446;-66
2022/08/25 12:57:36;;;;;;;3.10;2.43;;;;;;;33.39;31.91;96424.38;2110862;28;21007;-64
2022/08/25 12:58:55;;;;;;;4.87;2.50;;;;;;;32.92;32.79;96424.63;2109186;28;20805;-64
2022/08/25 13:00:15;;;;;;;4.77;2.23;;;;;;;31.27;34.63;96432.50;2100403;28;20524;-61
2022/08/25 13:11:55;;;;;;;7.87;3.40;;;;;;;34.97;30.65;96424.13;2084959;28;21439;-59
2022/08/25 13:19:51;;;;;;;7.60;3.30;;;;;;;30.43;36.16;96410.19;2059342;28;20418;-59
2022/08/25 13:21:02;;;;;;;9.20;2.87;;;;;;;30.55;36.13;96409.66;2066684;28;20511;-60
2022/08/25 13:22:16;;;;;;;6.73;3.50;;;;;;;30.15;36.96;96412.13;2062303;28;20469;-61
2022/08/25 13:23:24;;;;;;;45.77;37.03;;;;;;;30.99;36.06;96399.44;2065652;28;20466;-61
2022/08/25 13:24:38;;;;;;;27.90;21.03;;;;;;;32.36;34.01;96412.56;2066291;28;20431;-61
2022/08/25 13:31:05;;;;;;;2.90;2.37;;;;;;;31.61;34.46;96410.13;2072072;28;20388;-61
2022/08/25 13:32:11;;;;;;;4.50;3.03;;;;;;;30.35;36.11;96396.91;2072265;28;20467;-61
2022/08/25 13:33:19;;;;;;;5.93;2.50;;;;;;;31.29;35.30;96386.47;2073466;28;20428;-61
2022/08/25 13:34:25;;;;;;;11.07;3.30;;;;;;;32.11;34.20;96398.88;2075100;28;20431;-61
2022/08/25 13:35:35;;;;;;;6.57;2.90;;;;;;;32.24;33.94;96394.31;2074835;28;20982;-61
2022/08/25 13:49:05;;;;;;;6.84;2.28;;;;;;;31.75;33.22;96399.13;4223726;27;20548;-65
2022/08/25 13:50:17;;;;;;;5.30;2.60;;;;;;;31.30;33.72;96396.22;2064540;28;1290637;-65
2022/08/25 13:51:26;;;;;;;5.30;2.37;;;;;;;31.65;33.69;96387.13;2107783;28;20236;-66
2022/08/25 13:52:32;;;;;;;6.10;2.90;;;;;;;31.68;33.66;96384.00;2107019;28;20439;-64
2022/08/25 13:53:33;;;;;;;6.23;2.80;;;;;;;33.32;31.90;96380.31;2098806;28;20434;-65
2022/08/25 13:54:40;;;;;;;6.30;3.07;;;;;;;33.42;31.21;96393.34;2099809;28;20510;-65
2022/08/25 14:01:03;;;;;;;3.63;2.57;;;;;;;31.90;32.68;96384.59;2104214;28;20895;-65
2022/08/25 14:02:45;;;;;;;2.40;1.80;;;;;;;34.28;30.10;96385.50;2098425;28;20851;-65
2022/08/25 14:03:53;;;;;;;6.10;2.13;;;;;;;33.98;29.72;96381.66;2091875;28;20439;-65
2022/08/25 14:04:54;;;;;;;8.67;2.30;;;;;;;32.58;31.37;96372.56;2083250;28;20441;-65
2022/08/25 14:06:24;;;;;;;4.70;2.40;;;;;;;31.82;32.56;96377.56;2090784;28;20430;-65
2022/08/25 14:07:28;;;;;;;7.50;1.90;;;;;;;31.25;33.12;96383.34;2106616;28;20542;-65
2022/08/25 14:08:38;;;;;;;4.87;2.10;;;;;;;31.24;33.60;96370.06;2108274;28;20439;-65
2022/08/25 14:09:47;;;;;;;5.00;2.43;;;;;;;32.03;32.53;96365.66;2109087;28;20434;-64
2022/08/25 14:11:07;;;;;;;7.60;2.50;;;;;;;32.78;31.78;96369.81;2108553;28;21148;-64
2022/08/25 14:12:46;;;;;;;7.23;2.60;;;;;;;33.38;30.51;96376.72;2107347;28;20495;-65
2022/08/25 14:13:58;;;;;;;6.90;2.40;;;;;;;33.10;30.81;96363.59;2096478;28;20446;-65
2022/08/25 14:15:15;;;;;;;4.50;2.10;;;;;;;34.08;30.11;96373.00;2108962;28;20781;-65
2022/08/25 14:16:22;;;;;;;3.03;2.10;;;;;;;34.41;29.23;96352.88;2103435;28;20423;-64
2022/08/25 14:17:26;;;;;;;3.47;2.00;;;;;;;35.29;28.27;96366.91;2104299;28;20440;-65
2022/08/25 14:18:53;;;;;;;2.40;1.90;;;;;;;36.09;27.50;96363.94;2108630;28;20427;-65
2022/08/25 14:19:59;;;;;;;4.47;2.13;;;;;;;34.29;29.09;96366.31;2109449;28;20434;-65
2022/08/25 14:21:08;;;;;;;4.20;2.00;;;;;;;32.55;31.48;96354.09;2112165;28;20439;-65
2022/08/25 14:22:12;;;;;;;3.50;2.00;;;;;;;32.41;31.61;96366.84;2110467;28;20836;-64
2022/08/25 14:23:20;;;;;;;4.00;2.13;;;;;;;31.20;33.48;96352.66;2107369;28;20443;-64
2022/08/25 14:24:22;;;;;;;3.00;2.17;;;;;;;31.08;34.07;96361.34;2107235;28;20433;-60
2022/08/25 14:25:28;;;;;;;5.00;1.60;;;;;;;31.58;32.93;96347.44;2107266;28;20431;-61
2022/08/25 14:26:31;;;;;;;4.73;2.40;;;;;;;31.47;33.84;96366.97;2106992;28;20427;-60
2022/08/25 14:27:33;;;;;;;2.60;2.10;;;;;;;31.29;33.45;96356.81;2108823;28;20960;-65
2022/08/25 14:28:51;;;;;;;6.80;1.97;;;;;;;31.19;33.41;96362.59;2109042;28;20926;-61
2022/08/25 14:29:53;;;;;;;9.13;2.37;;;;;;;31.91;31.94;96351.19;2107834;28;21192;-60
2022/08/25 14:30:59;;;;;;;6.13;2.23;;;;;;;33.17;30.75;96362.50;2104359;28;20471;-60
2022/08/25 14:43:19;;;;;;;6.00;2.00;;;;;;;33.42;29.82;96339.25;2109598;28;20431;-65
2022/08/25 14:44:32;;;;;;;3.93;1.83;;;;;;;33.06;29.91;96352.38;2117654;28;20426;-65
2022/08/25 14:45:39;;;;;;;3.70;2.43;;;;;;;31.84;31.86;96353.06;2110132;28;20499;-64
2022/08/25 14:46:52;;;;;;;4.40;1.80;;;;;;;31.34;32.48;96356.16;2104637;28;20443;-64
2022/08/25 14:48:07;;;;;;;3.53;1.90;;;;;;;32.88;30.61;96348.53;2109120;28;20453;-65
2022/08/25 14:49:17;;;;;;;6.77;2.17;;;;;;;31.55;31.71;96347.03;2109806;28;21079;-64
2022/08/25 14:50:25;;;;;;;3.03;2.30;;;;;;;31.43;32.57;96349.53;2107450;28;20458;-65
2022/08/25 14:51:28;;;;;;;4.23;1.90;;;;;;;31.90;31.85;96347.63;2107174;28;20416;-64
2022/08/25 14:52:30;;;;;;;3.03;2.20;;;;;;;31.40;32.24;96339.16;2107901;28;20442;-64
2022/08/25 14:53:31;;;;;;;3.40;1.93;;;;;;;32.04;31.22;96347.63;2103992;28;20918;-64
2022/08/25 14:54:35;;;;;;;5.97;2.37;;;;;;;31.61;32.43;96340.00;2104272;28;21012;-64
2022/08/25 14:55:38;;;;;;;3.70;2.17;;;;;;;31.58;32.50;96349.34;2104921;28;20573;-64
2022/08/25 14:56:40;;;;;;;4.07;2.10;;;;;;;31.19;32.96;96332.13;2108336;28;20434;-65
2022/08/25 14:57:43;;;;;;;4.83;2.30;;;;;;;31.90;32.24;96344.13;2111440;28;20434;-65
2022/08/25 14:58:45;;;;;;;2.67;2.27;;;;;;;32.26;31.77;96337.38;2105330;28;20523;-64
2022/08/25 14:59:51;;;;;;;7.13;1.80;;;;;;;33.73;30.46;96348.34;2105160;28;20431;-65
2022/08/25 15:00:54;;;;;;;2.43;1.73;;;;;;;34.78;29.06;96349.25;2102467;28;20507;-64
2022/08/25 15:09:06;;;;;;;2.70;1.60;;;;;;;35.40;28.08;96337.31;2102450;28;20396;-65
2022/08/25 15:09:47;;;;;;;2.40;1.47;;;;;;;35.78;26.94;96336.88;2102839;28;20431;-65
2022/08/25 15:10:49;;;;;;;2.27;1.97;;;;;;;34.23;28.34;96318.44;2101038;28;20404;-62
2022/08/25 15:11:56;;;;;;;3.00;1.87;;;;;;;35.01;28.21;96335.00;2094633;28;20956;-61
2022/08/25 15:12:58;;;;;;;4.57;3.40;;;;;;;35.54;26.91;96338.78;2096401;28;20440;-62
2022/08/25 15:14:00;;;;;;;2.10;1.50;;;;;;;35.29;27.48;96334.34;2102150;28;20946;-61
2022/08/25 15:15:03;;;;;;;4.00;2.87;;;;;;;35.71;27.35;96332.63;2103362;28;20486;-61
2022/08/25 15:16:07;;;;;;;5.13;2.23;;;;;;;36.26;26.70;96313.19;2102230;28;20432;-61
2022/08/25 15:17:11;;;;;;;2.33;2.00;;;;;;;36.86;26.35;96337.50;2101496;28;20467;-61
2022/08/25 15:18:16;;;;;;;4.53;2.30;;;;;;;37.15;25.96;96332.03;2101380;28;20429;-62
2022/08/25 15:19:22;;;;;;;1.90;1.60;;;;;;;35.86;26.89;96329.41;2103156;28;20511;-61
2022/08/25 15:20:25;;;;;;;2.70;1.67;;;;;;;35.95;26.63;96325.31;2102848;28;20482;-63
2022/08/25 15:21:27;;;;;;;5.30;1.90;;;;;;;35.94;26.57;96329.09;2101119;28;20447;-62
2022/08/25 15:22:29;;;;;;;2.43;1.50;;;;;;;33.62;29.25;96330.94;2095111;28;20456;-61
2022/08/25 15:23:31;;;;;;;3.00;1.70;;;;;;;34.56;28.53;96321.84;2092561;28;20430;-61
2022/08/25 15:24:36;;;;;;;1.83;1.57;;;;;;;33.87;29.44;96319.31;2100972;28;20470;-61
2022/08/25 15:37:14;;;;;;;2.70;2.27;;;;;;;35.14;28.91;96312.25;2101259;28;20453;-61
2022/08/25 15:38:16;;;;;;;2.53;1.67;;;;;;;35.12;28.86;96317.06;2102750;28;20541;-61
2022/08/25 15:39:17;;;;;;;2.40;1.87;;;;;;;35.00;29.22;96306.22;2100837;28;20428;-65
2022/08/25 15:40:20;;;;;;;2.73;1.90;;;;;;;32.84;31.12;96317.59;2100258;28;20424;-64
2022/08/25 15:41:21;;;;;;;2.63;1.47;;;;;;;32.78;31.48;96314.94;2097684;28;20960;-65
2022/08/25 15:42:28;;;;;;;5.60;2.20;;;;;;;33.59;30.45;96315.16;2101948;28;20443;-65
2022/08/25 15:43:30;;;;;;;3.90;1.90;;;;;;;34.27;30.29;96316.13;2097480;28;20456;-65
2022/08/25 15:44:32;;;;;;;2.13;1.80;;;;;;;34.90;29.24;96312.19;2092606;28;20512;-65
2022/08/25 15:45:36;;;;;;;2.90;1.87;;;;;;;35.14;28.92;96312.25;2100775;28;20424;-65
2022/08/25 15:46:41;;;;;;;2.10;1.80;;;;;;;35.04;29.20;96310.09;2101360;28;20486;-65
2022/08/25 15:47:50;;;;;;;3.20;1.57;;;;;;;34.92;28.96;96310.09;2101651;28;20456;-65
2022/08/25 15:48:56;;;;;;;2.30;1.60;;;;;;;35.12;28.60;96314.38;2101994;28;20416;-65
2022/08/25 15:50:07;;;;;;;2.60;1.70;;;;;;;34.71;29.00;96310.59;2101158;28;20541;-65
2022/08/25 15:51:08;;;;;;;8.17;2.00;;;;;;;33.94;29.54;96311.91;2101743;28;20436;-65
2022/08/25 15:52:12;;;;;;;2.20;1.53;;;;;;;32.58;31.57;96313.13;2103882;28;20459;-65
2022/08/25 15:53:13;;;;;;;3.20;1.73;;;;;;;31.91;32.38;96306.13;2097403;28;20972;-65
2022/08/25 15:54:15;;;;;;;5.20;2.30;;;;;;;31.92;32.26;96301.53;2103307;28;20545;-65
2022/08/25 16:02:02;;;;;;;2.33;1.80;;;;;;;32.92;32.01;96310.28;2103240;28;20996;-67
2022/08/25 16:03:12;;;;;;;3.43;2.07;;;;;;;33.27;31.11;96312.47;2102106;28;20468;-68
2022/08/25 16:04:14;;;;;;;8.03;2.00;;;;;;;33.25;30.89;96292.97;2100867;28;20437;-66
2022/08/25 16:05:18;;;;;;;3.20;1.80;;;;;;;33.65;30.44;96312.41;2102677;28;20461;-66
2022/08/25 16:06:26;;;;;;;5.20;1.70;;;;;;;33.61;30.57;96307.63;2101616;28;20512;-65
2022/08/25 16:07:27;;;;;;;3.80;1.97;;;;;;;33.24;30.70;96280.47;2103684;28;20450;-66
2022/08/25 16:08:29;;;;;;;4.53;1.97;;;;;;;33.19;31.12;96290.09;2104089;28;20446;-66
2022/08/25 16:09:31;;;;;;;2.73;1.97;;;;;;;33.24;31.25;96304.81;2100947;28;20555;-66
2022/08/25 16:10:38;;;;;;;4.03;2.23;;;;;;;33.41;30.54;96305.13;2100998;28;20446;-66
2022/08/25 16:11:42;;;;;;;2.63;1.87;;;;;;;33.63;30.78;96308.25;2100219;28;21089;-66
2022/08/25 16:12:44;;;;;;;2.53;1.60;;;;;;;33.78;30.67;96310.59;2103382;28;20429;-65
2022/08/25 16:13:46;;;;;;;2.83;1.60;;;;;;;33.96;30.46;96309.81;2103915;28;20510;-65
2022/08/25 16:14:48;;;;;;;3.40;1.70;;;;;;;33.98;30.40;96299.56;2103466;28;20427;-65
2022/08/25 16:15:53;;;;;;;3.60;2.03;;;;;;;34.17;30.00;96305.84;2109197;28;20937;-67
2022/08/25 16:16:58;;;;;;;3.23;2.17;;;;;;;34.42;30.13;96310.34;2105312;28;20460;-66
2022/08/25 16:18:02;;;;;;;3.07;2.00;;;;;;;34.50;29.56;96310.84;2103142;28;20541;-66
2022/08/25 16:19:05;;;;;;;3.60;1.80;;;;;;;34.45;29.58;96307.16;2105089;28;20805;-67
2022/08/25 16:20:07;;;;;;;3.60;2.03;;;;;;;34.11;29.57;96295.91;2105236;28;20427;-65
2022/08/25 16:21:18;;;;;;;2.60;1.93;;;;;;;33.74;30.32;96299.41;2102863;28;20416;-65
2022/08/25 16:22:26;;;;;;;3.60;2.10;;;;;;;34.06;29.97;96298.47;2102335;28;21193;-66
2022/08/25 16:23:28;;;;;;;6.13;1.60;;;;;;;34.39;30.19;96305.38;2095628;28;20429;-66
2022/08/25 16:24:30;;;;;;;2.27;1.83;;;;;;;34.27;29.91;96308.00;2098372;28;20836;-66
2022/08/25 16:25:31;;;;;;;6.30;2.10;;;;;;;34.29;29.84;96305.88;2100384;28;20537;-65
2022/08/25 16:26:41;;;;;;;2.60;1.90;;;;;;;34.15;29.75;96306.03;2097879;28;20995;-65
2022/08/25 16:27:49;;;;;;;3.63;1.87;;;;;;;33.82;30.05;96285.59;2099235;28;20452;-65
2022/08/25 16:28:50;;;;;;;2.00;1.67;;;;;;;34.02;29.93;96301.63;2099270;28;20481;-65
2022/08/25 16:29:52;;;;;;;4.40;1.97;;;;;;;33.97;30.27;96301.47;2100122;28;20469;-65
2022/08/25 16:30:53;;;;;;;4.27;2.60;;;;;;;33.97;30.26;96284.41;2103011;28;20918;-62
2022/08/25 16:31:57;;;;;;;3.00;2.00;;;;;;;34.09;30.08;96308.84;2101038;28;20959;-62
2022/08/25 16:33:02;;;;;;;2.43;1.70;;;;;;;34.05;29.96;96291.38;2101738;28;20469;-61
2022/08/25 16:34:06;;;;;;;2.50;1.73;;;;;;;34.03;29.76;96291.63;2102644;28;20428;-61
2022/08/25 16:35:09;;;;;;;2.13;1.70;;;;;;;34.00;30.21;96289.34;2102414;28;20435;-62
2022/08/25 16:36:21;;;;;;;3.30;1.60;;;;;;;32.58;31.68;96283.41;2100987;28;20481;-61
2022/08/25 16:37:22;;;;;;;1.93;1.60;;;;;;;31.28;33.64;96285.03;2100758;28;20982;-62
2022/08/25 16:38:24;;;;;;;4.20;1.73;;;;;;;31.32;33.61;96282.75;2102031;28;20480;-61
2022/08/25 16:39:26;;;;;;;6.53;1.97;;;;;;;31.63;33.19;96284.81;2099570;28;20436;-61
2022/08/25 16:40:27;;;;;;;3.27;2.27;;;;;;;31.75;32.94;96285.81;2096761;28;20452;-62
2022/08/25 16:41:33;;;;;;;4.13;1.60;;;;;;;32.30;32.64;96289.19;2097226;28;20464;-61
2022/08/25 16:42:36;;;;;;;2.90;1.90;;;;;;;32.65;32.44;96284.22;2101190;28;20499;-62
2022/08/25 16:43:38;;;;;;;3.50;1.53;;;;;;;33.00;32.24;96286.50;2102365;28;20491;-62
2022/08/25 16:44:40;;;;;;;5.70;2.30;;;;;;;32.81;32.13;96282.91;2101782;28;20425;-61
2022/08/25 16:45:41;;;;;;;6.43;2.07;;;;;;;32.63;32.14;96282.78;2100680;28;20429;-62
2022/08/25 16:46:43;;;;;;;8.63;2.23;;;;;;;31.86;33.18;96272.72;2100987;28;20419;-61
2022/08/25 16:47:45;;;;;;;18.00;2.23;;;;;;;31.68;33.17;96279.63;2101150;28;20522;-61
2022/08/25 16:48:49;;;;;;;6.60;3.87;;;;;;;31.52;33.23;96275.44;2092600;28;20529;-61
2022/08/25 16:49:50;;;;;;;11.87;2.10;;;;;;;31.41;33.99;96268.84;2105319;28;20471;-62
2022/08/25 16:50:58;;;;;;;6.13;1.93;;;;;;;31.71;33.63;96281.88;2100310;28;20448;-61
2022/08/25 16:52:02;;;;;;;4.20;2.20;;;;;;;31.94;33.06;96269.78;2102744;28;20559;-61
2022/08/25 16:55:45;;;;;;;2.87;1.80;;;;;;;32.06;33.52;96275.31;2099108;28;20435;-62
2022/08/25 16:56:48;;;;;;;7.80;2.33;;;;;;;32.37;32.63;96271.91;2101071;28;20450;-62
2022/08/25 16:57:55;;;;;;;3.17;2.27;;;;;;;32.10;33.06;96275.72;2101336;28;20425;-61
2022/08/25 16:58:59;;;;;;;4.27;2.30;;;;;;;32.05;32.84;96268.28;2097834;28;20424;-61
2022/08/25 17:00:00;;;;;;;2.87;1.60;;;;;;;31.73;33.13;96270.88;2098666;28;20487;-62
2022/08/25 17:01:07;;;;;;;2.27;1.50;;;;;;;31.30;34.09;96277.56;2100441;28;21169;-62
2022/08/25 17:02:10;;;;;;;4.20;1.70;;;;;;;30.64;34.62;96276.47;2099998;28;20834;-67
2022/08/25 17:03:12;;;;;;;3.00;1.87;;;;;;;30.31;35.74;96271.78;2096779;28;20493;-66
2022/08/25 17:04:14;;;;;;;2.90;2.03;;;;;;;30.61;35.71;96271.47;2096660;28;20907;-67
2022/08/25 17:05:17;;;;;;;3.53;2.00;;;;;;;30.62;35.43;96255.09;2098448;28;20429;-66
2022/08/25 17:06:19;;;;;;;2.37;1.67;;;;;;;30.66;35.20;96263.59;2099169;28;20470;-66
2022/08/25 17:07:21;;;;;;;3.20;2.10;;;;;;;30.73;35.53;96271.72;2106379;28;20492;-66
2022/08/25 17:08:28;;;;;;;4.07;1.83;;;;;;;30.76;35.21;96264.03;2101473;28;20447;-66
2022/08/25 17:09:34;;;;;;;2.40;1.97;;;;;;;30.73;35.55;96267.16;2098938;28;20436;-66
2022/08/25 17:10:40;;;;;;;3.40;1.83;;;;;;;30.59;35.71;96268.16;2098935;28;20457;-66
2022/08/25 17:11:45;;;;;;;4.83;2.13;;;;;;;30.59;35.47;96269.00;2091032;28;20438;-61
2022/08/25 17:12:47;;;;;;;6.80;1.93;;;;;;;30.40;35.77;96267.88;2099331;28;20427;-61
2022/08/25 17:13:53;;;;;;;2.63;1.67;;;;;;;30.39;35.60;96273.47;2100762;28;20919;-61
2022/08/25 17:14:55;;;;;;;3.43;2.10;;;;;;;30.39;35.49;96268.09;2101264;28;20479;-66
2022/08/25 17:15:57;;;;;;;3.40;1.70;;;;;;;30.42;35.86;96268.50;2103564;28;20548;-67
2022/08/25 17:16:59;;;;;;;5.70;2.03;;;;;;;29.79;36.68;96276.72;2101279;28;20508;-66
2022/08/25 17:18:01;;;;;;;14.23;2.20;;;;;;;30.01;36.86;96268.59;2102351;28;20436;-67
2022/08/25 17:19:07;;;;;;;2.60;1.93;;;;;;;30.06;36.81;96271.50;2100738;28;20428;-67
2022/08/25 17:20:12;;;;;;;5.30;2.07;;;;;;;30.04;36.79;96268.16;2103023;28;20428;-66
2022/08/25 17:21:16;;;;;;;8.47;2.40;;;;;;;29.84;36.74;96276.97;2103393;28;20768;-66
2022/08/25 17:22:25;;;;;;;3.00;2.10;;;;;;;29.58;37.35;96274.94;2100159;28;20455;-66
2022/08/25 17:23:26;;;;;;;4.17;2.40;;;;;;;29.78;37.08;96277.75;2100073;28;20428;-67
2022/08/25 17:24:28;;;;;;;3.37;2.07;;;;;;;29.48;37.33;96270.75;2101310;28;20473;-66
2022/08/25 17:25:36;;;;;;;4.60;1.93;;;;;;;29.57;37.49;96279.50;2101713;28;20438;-66
2022/08/25 17:26:46;;;;;;;3.63;1.90;;;;;;;29.56;37.35;96266.22;2107379;28;20483;-66
2022/08/25 17:27:49;;;;;;;4.27;2.47;;;;;;;29.58;37.45;96270.38;2100717;28;21236;-66
2022/08/25 17:28:51;;;;;;;2.47;1.90;;;;;;;29.29;37.74;96256.16;2100365;28;21382;-66
2022/08/25 17:29:54;;;;;;;10.70;2.53;;;;;;;29.24;38.20;96269.31;2092332;28;20410;-66